sensor_id;sensor_type;location;lat;lon;timestamp;temperature;humidity
65048;DHT22;52089;51.362;-2.384;2022-09-30T00:00:37;9.20;99.90
65048;DHT22;52089;51.362;-2.384;2022-09-30T00:04:22;9.30;99.90
65048;DHT22;52089;51.362;-2.384;2022-09-30T00:08:05;9.50;99.90
65048;DHT22;52089;51.362;-2.384;2022-09-30T00:11:46;9.60;99.90
65048;DHT22;52089;51.362;-2.384;2022-09-30T00:15:28;9.60;99.90
65048;DHT22;52089;51.362;-2.384;2022-09-30T00:19:10;9.60;99.90
65048;DHT22;52089;51.362;-2.384;2022-09-30T00:22:52;9.60;99.90
65048;DHT22;52089;51.362;-2.384;2022-09-30T00:26:34;9.50;99.90
65048;DHT22;52089;51.362;-2.384;2022-09-30T00:30:16;9.50;99.90
65048;DHT22;52089;51.362;-2.384;2022-09-30T00:33:58;9.40;99.90
65048;DHT22;52089;51.362;-2.384;2022-09-30T00:37:49;9.30;99.90
65048;DHT22;52089;51.362;-2.384;2022-09-30T00:41:31;9.20;99.90
65048;DHT22;52089;51.362;-2.384;2022-09-30T00:45:13;9.10;99.90
65048;DHT22;52089;51.362;-2.384;2022-09-30T00:49:02;9.00;99.90
65048;DHT22;52089;51.362;-2.384;2022-09-30T00:56:53;8.80;99.90
65048;DHT22;52089;51.362;-2.384;2022-09-30T01:00:36;8.70;99.90
65048;DHT22;52089;51.362;-2.384;2022-09-30T01:04:20;8.60;99.90
65048;DHT22;52089;51.362;-2.384;2022-09-30T01:08:04;8.50;99.90
65048;DHT22;52089;51.362;-2.384;2022-09-30T01:11:47;8.40;99.90
65048;DHT22;52089;51.362;-2.384;2022-09-30T01:16:15;8.30;99.90
65048;DHT22;52089;51.362;-2.384;2022-09-30T01:43:56;8.50;99.90
65048;DHT22;52089;51.362;-2.384;2022-09-30T01:47:49;8.40;99.90
65048;DHT22;52089;51.362;-2.384;2022-09-30T01:51:37;8.40;99.90
65048;DHT22;52089;51.362;-2.384;2022-09-30T01:55:39;8.40;99.90
65048;DHT22;52089;51.362;-2.384;2022-09-30T01:59:36;8.40;99.90
65048;DHT22;52089;51.362;-2.384;2022-09-30T02:03:32;8.30;99.90
65048;DHT22;52089;51.362;-2.384;2022-09-30T02:07:31;8.20;99.90
65048;DHT22;52089;51.362;-2.384;2022-09-30T02:11:28;8.20;99.90
65048;DHT22;52089;51.362;-2.384;2022-09-30T02:15:14;8.20;99.90
65048;DHT22;52089;51.362;-2.384;2022-09-30T02:19:05;8.10;99.90
65048;DHT22;52089;51.362;-2.384;2022-09-30T02:22:53;8.10;99.90
65048;DHT22;52089;51.362;-2.384;2022-09-30T02:26:41;8.10;99.90
65048;DHT22;52089;51.362;-2.384;2022-09-30T02:30:23;8.20;99.90
65048;DHT22;52089;51.362;-2.384;2022-09-30T02:37:56;8.10;99.90
65048;DHT22;52089;51.362;-2.384;2022-09-30T02:41:44;8.10;99.90
65048;DHT22;52089;51.362;-2.384;2022-09-30T02:45:31;8.00;99.90
65048;DHT22;52089;51.362;-2.384;2022-09-30T02:53:16;8.00;99.90
65048;DHT22;52089;51.362;-2.384;2022-09-30T02:57:27;7.90;99.90
65048;DHT22;52089;51.362;-2.384;2022-09-30T03:01:15;7.80;99.90
65048;DHT22;52089;51.362;-2.384;2022-09-30T03:04:57;7.80;99.90
65048;DHT22;52089;51.362;-2.384;2022-09-30T03:08:39;7.80;99.90
65048;DHT22;52089;51.362;-2.384;2022-09-30T03:12:38;7.80;99.90
65048;DHT22;52089;51.362;-2.384;2022-09-30T03:20:37;7.80;99.90
65048;DHT22;52089;51.362;-2.384;2022-09-30T03:24:33;7.80;99.90
65048;DHT22;52089;51.362;-2.384;2022-09-30T03:28:32;7.80;99.90
65048;DHT22;52089;51.362;-2.384;2022-09-30T03:36:49;7.90;99.90
65048;DHT22;52089;51.362;-2.384;2022-09-30T03:40:40;7.90;99.90
65048;DHT22;52089;51.362;-2.384;2022-09-30T03:45:04;7.90;99.90
65048;DHT22;52089;51.362;-2.384;2022-09-30T03:48:52;7.90;99.90
65048;DHT22;52089;51.362;-2.384;2022-09-30T03:52:36;7.90;99.90
65048;DHT22;52089;51.362;-2.384;2022-09-30T03:56:29;7.90;99.90
65048;DHT22;52089;51.362;-2.384;2022-09-30T04:00:12;8.00;99.90
65048;DHT22;52089;51.362;-2.384;2022-09-30T04:03:54;8.10;99.90
65048;DHT22;52089;51.362;-2.384;2022-09-30T04:07:36;8.10;99.90
65048;DHT22;52089;51.362;-2.384;2022-09-30T04:11:17;8.30;99.90
65048;DHT22;52089;51.362;-2.384;2022-09-30T04:14:59;8.40;99.90
65048;DHT22;52089;51.362;-2.384;2022-09-30T04:18:41;8.40;99.90
65048;DHT22;52089;51.362;-2.384;2022-09-30T04:22:23;8.40;99.90
65048;DHT22;52089;51.362;-2.384;2022-09-30T04:26:13;8.40;99.90
65048;DHT22;52089;51.362;-2.384;2022-09-30T04:29:55;8.40;99.90
65048;DHT22;52089;51.362;-2.384;2022-09-30T04:33:38;8.60;99.90
65048;DHT22;52089;51.362;-2.384;2022-09-30T04:37:19;8.60;99.90
65048;DHT22;52089;51.362;-2.384;2022-09-30T04:41:03;8.70;99.90
65048;DHT22;52089;51.362;-2.384;2022-09-30T04:44:45;8.80;99.90
65048;DHT22;52089;51.362;-2.384;2022-09-30T04:48:28;8.90;99.90
65048;DHT22;52089;51.362;-2.384;2022-09-30T04:52:12;9.00;99.90
65048;DHT22;52089;51.362;-2.384;2022-09-30T04:55:58;9.00;99.90
65048;DHT22;52089;51.362;-2.384;2022-09-30T04:59:40;9.00;99.90
65048;DHT22;52089;51.362;-2.384;2022-09-30T05:03:22;8.90;99.90
65048;DHT22;52089;51.362;-2.384;2022-09-30T05:07:04;8.90;99.90
65048;DHT22;52089;51.362;-2.384;2022-09-30T05:10:56;9.00;99.90
65048;DHT22;52089;51.362;-2.384;2022-09-30T05:14:38;9.00;99.90
65048;DHT22;52089;51.362;-2.384;2022-09-30T05:18:20;9.20;99.90
65048;DHT22;52089;51.362;-2.384;2022-09-30T05:22:02;9.30;99.90
65048;DHT22;52089;51.362;-2.384;2022-09-30T05:25:45;9.40;99.90
65048;DHT22;52089;51.362;-2.384;2022-09-30T05:29:27;9.50;99.90
65048;DHT22;52089;51.362;-2.384;2022-09-30T05:33:10;9.60;99.90
65048;DHT22;52089;51.362;-2.384;2022-09-30T05:36:52;9.60;99.90
65048;DHT22;52089;51.362;-2.384;2022-09-30T05:40:36;9.60;99.90
65048;DHT22;52089;51.362;-2.384;2022-09-30T05:44:18;9.60;99.90
65048;DHT22;52089;51.362;-2.384;2022-09-30T05:48:00;9.60;99.90
65048;DHT22;52089;51.362;-2.384;2022-09-30T05:51:43;9.70;99.90
65048;DHT22;52089;51.362;-2.384;2022-09-30T05:55:24;9.80;99.90
65048;DHT22;52089;51.362;-2.384;2022-09-30T05:59:06;9.80;99.90
65048;DHT22;52089;51.362;-2.384;2022-09-30T06:02:51;9.80;99.90
65048;DHT22;52089;51.362;-2.384;2022-09-30T06:06:33;9.90;99.90
65048;DHT22;52089;51.362;-2.384;2022-09-30T06:10:15;10.00;99.90
65048;DHT22;52089;51.362;-2.384;2022-09-30T06:13:56;10.00;99.90
65048;DHT22;52089;51.362;-2.384;2022-09-30T06:17:38;10.00;99.90
65048;DHT22;52089;51.362;-2.384;2022-09-30T06:21:22;10.00;99.90
65048;DHT22;52089;51.362;-2.384;2022-09-30T06:25:05;10.00;99.90
65048;DHT22;52089;51.362;-2.384;2022-09-30T06:28:47;10.00;99.90
65048;DHT22;52089;51.362;-2.384;2022-09-30T06:32:29;10.00;99.90
65048;DHT22;52089;51.362;-2.384;2022-09-30T06:36:11;10.00;99.90
65048;DHT22;52089;51.362;-2.384;2022-09-30T06:39:52;10.00;99.90
65048;DHT22;52089;51.362;-2.384;2022-09-30T06:43:34;10.10;99.90
65048;DHT22;52089;51.362;-2.384;2022-09-30T06:47:30;10.10;99.90
65048;DHT22;52089;51.362;-2.384;2022-09-30T06:51:13;10.10;99.90
65048;DHT22;52089;51.362;-2.384;2022-09-30T06:54:55;10.10;99.90
65048;DHT22;52089;51.362;-2.384;2022-09-30T06:58:37;10.10;99.90
65048;DHT22;52089;51.362;-2.384;2022-09-30T07:02:20;10.20;99.90
65048;DHT22;52089;51.362;-2.384;2022-09-30T07:06:04;10.30;99.90
65048;DHT22;52089;51.362;-2.384;2022-09-30T07:09:46;10.40;99.90
65048;DHT22;52089;51.362;-2.384;2022-09-30T07:13:28;10.50;99.90
65048;DHT22;52089;51.362;-2.384;2022-09-30T07:17:10;10.70;99.90
65048;DHT22;52089;51.362;-2.384;2022-09-30T07:20:53;10.90;99.90
65048;DHT22;52089;51.362;-2.384;2022-09-30T07:24:35;11.00;99.90
65048;DHT22;52089;51.362;-2.384;2022-09-30T07:28:17;11.10;99.90
65048;DHT22;52089;51.362;-2.384;2022-09-30T07:31:59;11.20;99.90
65048;DHT22;52089;51.362;-2.384;2022-09-30T07:36:08;11.30;99.90
65048;DHT22;52089;51.362;-2.384;2022-09-30T07:39:51;11.30;99.90
65048;DHT22;52089;51.362;-2.384;2022-09-30T07:43:34;11.30;99.90
65048;DHT22;52089;51.362;-2.384;2022-09-30T07:47:19;11.30;99.90
65048;DHT22;52089;51.362;-2.384;2022-09-30T07:51:01;11.30;99.90
65048;DHT22;52089;51.362;-2.384;2022-09-30T07:54:43;11.30;99.90
65048;DHT22;52089;51.362;-2.384;2022-09-30T07:58:31;11.30;99.90
65048;DHT22;52089;51.362;-2.384;2022-09-30T08:02:15;11.40;99.90
65048;DHT22;52089;51.362;-2.384;2022-09-30T08:06:04;11.50;99.90
65048;DHT22;52089;51.362;-2.384;2022-09-30T08:09:45;11.60;99.90
65048;DHT22;52089;51.362;-2.384;2022-09-30T08:13:27;11.70;99.90
65048;DHT22;52089;51.362;-2.384;2022-09-30T08:17:09;11.70;99.90
65048;DHT22;52089;51.362;-2.384;2022-09-30T08:20:51;11.80;99.90
65048;DHT22;52089;51.362;-2.384;2022-09-30T08:24:33;11.90;99.90
65048;DHT22;52089;51.362;-2.384;2022-09-30T08:28:14;11.90;99.90
65048;DHT22;52089;51.362;-2.384;2022-09-30T08:31:57;11.90;99.90
65048;DHT22;52089;51.362;-2.384;2022-09-30T08:35:39;12.00;99.90
65048;DHT22;52089;51.362;-2.384;2022-09-30T08:39:21;12.00;99.90
65048;DHT22;52089;51.362;-2.384;2022-09-30T08:43:26;12.00;99.90
65048;DHT22;52089;51.362;-2.384;2022-09-30T08:47:38;12.00;99.90
65048;DHT22;52089;51.362;-2.384;2022-09-30T08:51:36;12.10;99.90
65048;DHT22;52089;51.362;-2.384;2022-09-30T08:55:37;12.20;99.90
65048;DHT22;52089;51.362;-2.384;2022-09-30T08:59:39;12.20;99.90
65048;DHT22;52089;51.362;-2.384;2022-09-30T09:03:28;12.30;99.90
65048;DHT22;52089;51.362;-2.384;2022-09-30T09:11:22;12.30;99.90
65048;DHT22;52089;51.362;-2.384;2022-09-30T09:19:20;12.40;99.90
65048;DHT22;52089;51.362;-2.384;2022-09-30T09:23:09;12.40;99.90
65048;DHT22;52089;51.362;-2.384;2022-09-30T09:26:53;12.40;99.90
65048;DHT22;52089;51.362;-2.384;2022-09-30T09:30:42;12.40;99.90
65048;DHT22;52089;51.362;-2.384;2022-09-30T09:34:29;12.50;99.90
65048;DHT22;52089;51.362;-2.384;2022-09-30T09:38:30;12.60;99.90
65048;DHT22;52089;51.362;-2.384;2022-09-30T09:46:31;12.80;99.90
65048;DHT22;52089;51.362;-2.384;2022-09-30T09:50:18;13.00;99.90
65048;DHT22;52089;51.362;-2.384;2022-09-30T09:54:04;13.20;99.90
65048;DHT22;52089;51.362;-2.384;2022-09-30T09:58:11;13.30;99.90
65048;DHT22;52089;51.362;-2.384;2022-09-30T10:01:59;13.40;99.90
65048;DHT22;52089;51.362;-2.384;2022-09-30T10:05:41;13.60;99.90
65048;DHT22;52089;51.362;-2.384;2022-09-30T10:13:21;13.90;99.90
65048;DHT22;52089;51.362;-2.384;2022-09-30T10:17:04;14.00;99.90
65048;DHT22;52089;51.362;-2.384;2022-09-30T10:20:52;14.00;99.90
65048;DHT22;52089;51.362;-2.384;2022-09-30T10:24:36;14.00;99.90
65048;DHT22;52089;51.362;-2.384;2022-09-30T10:28:23;14.10;99.90
65048;DHT22;52089;51.362;-2.384;2022-09-30T10:32:07;14.10;99.90
65048;DHT22;52089;51.362;-2.384;2022-09-30T10:35:53;14.20;99.90
65048;DHT22;52089;51.362;-2.384;2022-09-30T10:39:41;14.30;99.90
65048;DHT22;52089;51.362;-2.384;2022-09-30T10:43:40;14.40;99.90
65048;DHT22;52089;51.362;-2.384;2022-09-30T10:47:25;14.60;99.90
65048;DHT22;52089;51.362;-2.384;2022-09-30T10:51:23;14.90;99.90
65048;DHT22;52089;51.362;-2.384;2022-09-30T10:59:01;15.40;99.90
65048;DHT22;52089;51.362;-2.384;2022-09-30T11:02:59;15.70;99.90
65048;DHT22;52089;51.362;-2.384;2022-09-30T11:06:45;15.90;99.90
65048;DHT22;52089;51.362;-2.384;2022-09-30T11:10:47;16.00;99.90
65048;DHT22;52089;51.362;-2.384;2022-09-30T11:14:57;16.10;99.90
65048;DHT22;52089;51.362;-2.384;2022-09-30T11:23:05;16.10;99.90
65048;DHT22;52089;51.362;-2.384;2022-09-30T11:30:57;16.10;99.90
65048;DHT22;52089;51.362;-2.384;2022-09-30T11:39:20;15.90;99.90
65048;DHT22;52089;51.362;-2.384;2022-09-30T11:59:28;15.60;99.90
65048;DHT22;52089;51.362;-2.384;2022-09-30T12:03:26;15.40;99.90
65048;DHT22;52089;51.362;-2.384;2022-09-30T12:07:16;15.20;99.90
65048;DHT22;52089;51.362;-2.384;2022-09-30T12:11:03;14.90;99.90
65048;DHT22;52089;51.362;-2.384;2022-09-30T12:18:35;14.30;99.90
65048;DHT22;52089;51.362;-2.384;2022-09-30T12:22:23;14.00;99.90
65048;DHT22;52089;51.362;-2.384;2022-09-30T12:26:06;13.80;99.90
65048;DHT22;52089;51.362;-2.384;2022-09-30T12:30:00;13.60;99.90
65048;DHT22;52089;51.362;-2.384;2022-09-30T12:38:29;13.40;99.90
65048;DHT22;52089;51.362;-2.384;2022-09-30T12:42:39;13.30;99.90
65048;DHT22;52089;51.362;-2.384;2022-09-30T12:54:33;12.90;99.90
65048;DHT22;52089;51.362;-2.384;2022-09-30T12:58:29;12.70;99.90
65048;DHT22;52089;51.362;-2.384;2022-09-30T13:06:14;12.40;99.90
65048;DHT22;52089;51.362;-2.384;2022-09-30T13:10:22;12.40;99.90
65048;DHT22;52089;51.362;-2.384;2022-09-30T13:26:00;12.70;99.90
65048;DHT22;52089;51.362;-2.384;2022-09-30T13:29:46;12.70;99.90
65048;DHT22;52089;51.362;-2.384;2022-09-30T13:33:42;12.80;99.90
65048;DHT22;52089;51.362;-2.384;2022-09-30T13:37:33;12.80;99.90
65048;DHT22;52089;51.362;-2.384;2022-09-30T13:41:20;12.80;99.90
65048;DHT22;52089;51.362;-2.384;2022-09-30T13:45:26;12.90;99.90
65048;DHT22;52089;51.362;-2.384;2022-09-30T13:49:23;12.80;99.90
65048;DHT22;52089;51.362;-2.384;2022-09-30T13:53:18;12.80;99.90
65048;DHT22;52089;51.362;-2.384;2022-09-30T13:57:04;12.90;99.90
65048;DHT22;52089;51.362;-2.384;2022-09-30T14:08:44;13.00;99.90
65048;DHT22;52089;51.362;-2.384;2022-09-30T14:23:59;13.00;99.90
65048;DHT22;52089;51.362;-2.384;2022-09-30T14:31:44;13.00;99.90
65048;DHT22;52089;51.362;-2.384;2022-09-30T14:35:32;13.00;99.90
65048;DHT22;52089;51.362;-2.384;2022-09-30T14:39:27;13.00;99.90
65048;DHT22;52089;51.362;-2.384;2022-09-30T14:43:15;13.00;99.90
65048;DHT22;52089;51.362;-2.384;2022-09-30T14:46:58;13.00;99.90
65048;DHT22;52089;51.362;-2.384;2022-09-30T14:50:49;13.00;99.90
65048;DHT22;52089;51.362;-2.384;2022-09-30T14:54:32;13.00;99.90
65048;DHT22;52089;51.362;-2.384;2022-09-30T14:58:24;13.10;99.90
65048;DHT22;52089;51.362;-2.384;2022-09-30T15:02:16;13.20;99.90
65048;DHT22;52089;51.362;-2.384;2022-09-30T15:06:03;13.20;99.90
65048;DHT22;52089;51.362;-2.384;2022-09-30T15:09:46;13.20;99.90
65048;DHT22;52089;51.362;-2.384;2022-09-30T15:13:29;13.20;99.90
65048;DHT22;52089;51.362;-2.384;2022-09-30T15:17:26;13.20;99.90
65048;DHT22;52089;51.362;-2.384;2022-09-30T15:21:14;13.20;99.90
65048;DHT22;52089;51.362;-2.384;2022-09-30T15:24:56;13.20;99.90
65048;DHT22;52089;51.362;-2.384;2022-09-30T15:28:40;13.20;99.90
65048;DHT22;52089;51.362;-2.384;2022-09-30T15:32:23;13.20;99.90
65048;DHT22;52089;51.362;-2.384;2022-09-30T15:36:13;13.30;99.90
65048;DHT22;52089;51.362;-2.384;2022-09-30T15:39:57;13.20;99.90
65048;DHT22;52089;51.362;-2.384;2022-09-30T15:43:57;13.30;99.90
65048;DHT22;52089;51.362;-2.384;2022-09-30T15:47:54;13.30;99.90
65048;DHT22;52089;51.362;-2.384;2022-09-30T15:51:41;13.30;99.90
65048;DHT22;52089;51.362;-2.384;2022-09-30T15:55:37;13.40;99.90
65048;DHT22;52089;51.362;-2.384;2022-09-30T15:59:19;13.40;99.90
65048;DHT22;52089;51.362;-2.384;2022-09-30T16:03:18;13.40;99.90
65048;DHT22;52089;51.362;-2.384;2022-09-30T16:07:08;13.50;99.90
65048;DHT22;52089;51.362;-2.384;2022-09-30T16:10:54;13.50;99.90
65048;DHT22;52089;51.362;-2.384;2022-09-30T16:14:52;13.50;99.90
65048;DHT22;52089;51.362;-2.384;2022-09-30T16:18:34;13.60;99.90
65048;DHT22;52089;51.362;-2.384;2022-09-30T16:26:21;13.60;99.90
65048;DHT22;52089;51.362;-2.384;2022-09-30T16:30:06;13.70;99.90
65048;DHT22;52089;51.362;-2.384;2022-09-30T16:33:48;13.70;99.90
65048;DHT22;52089;51.362;-2.384;2022-09-30T16:37:30;13.70;99.90
65048;DHT22;52089;51.362;-2.384;2022-09-30T16:41:12;13.80;99.90
65048;DHT22;52089;51.362;-2.384;2022-09-30T16:44:54;13.80;99.90
65048;DHT22;52089;51.362;-2.384;2022-09-30T16:48:37;13.90;99.90
65048;DHT22;52089;51.362;-2.384;2022-09-30T16:52:20;13.90;99.90
65048;DHT22;52089;51.362;-2.384;2022-09-30T16:56:02;13.90;99.90
65048;DHT22;52089;51.362;-2.384;2022-09-30T16:59:44;14.00;99.90
65048;DHT22;52089;51.362;-2.384;2022-09-30T17:03:26;14.00;99.90
65048;DHT22;52089;51.362;-2.384;2022-09-30T17:07:10;14.00;99.90
65048;DHT22;52089;51.362;-2.384;2022-09-30T17:10:54;14.00;99.90
65048;DHT22;52089;51.362;-2.384;2022-09-30T17:14:38;14.00;99.90
65048;DHT22;52089;51.362;-2.384;2022-09-30T17:18:21;14.00;99.90
65048;DHT22;52089;51.362;-2.384;2022-09-30T17:22:03;14.10;99.90
65048;DHT22;52089;51.362;-2.384;2022-09-30T17:25:46;14.10;99.90
65048;DHT22;52089;51.362;-2.384;2022-09-30T17:29:27;14.10;99.90
65048;DHT22;52089;51.362;-2.384;2022-09-30T17:33:14;14.10;99.90
65048;DHT22;52089;51.362;-2.384;2022-09-30T17:36:56;14.10;99.90
65048;DHT22;52089;51.362;-2.384;2022-09-30T17:40:38;14.20;99.90
65048;DHT22;52089;51.362;-2.384;2022-09-30T17:44:38;14.20;99.90
65048;DHT22;52089;51.362;-2.384;2022-09-30T17:48:20;14.20;99.90
65048;DHT22;52089;51.362;-2.384;2022-09-30T17:52:02;14.30;99.90
65048;DHT22;52089;51.362;-2.384;2022-09-30T17:55:46;14.30;99.90
65048;DHT22;52089;51.362;-2.384;2022-09-30T17:59:28;14.40;99.90
65048;DHT22;52089;51.362;-2.384;2022-09-30T18:03:10;14.40;99.90
65048;DHT22;52089;51.362;-2.384;2022-09-30T18:06:53;14.40;99.90
65048;DHT22;52089;51.362;-2.384;2022-09-30T18:10:35;14.50;99.90
65048;DHT22;52089;51.362;-2.384;2022-09-30T18:14:18;14.50;99.90
65048;DHT22;52089;51.362;-2.384;2022-09-30T18:18:00;14.50;99.90
65048;DHT22;52089;51.362;-2.384;2022-09-30T18:21:41;14.60;99.90
65048;DHT22;52089;51.362;-2.384;2022-09-30T18:25:23;14.60;99.90
65048;DHT22;52089;51.362;-2.384;2022-09-30T18:29:05;14.60;99.90
65048;DHT22;52089;51.362;-2.384;2022-09-30T18:32:49;14.70;99.90
65048;DHT22;52089;51.362;-2.384;2022-09-30T18:36:31;14.70;99.90
65048;DHT22;52089;51.362;-2.384;2022-09-30T18:40:13;14.80;99.90
65048;DHT22;52089;51.362;-2.384;2022-09-30T18:43:57;14.80;99.90
65048;DHT22;52089;51.362;-2.384;2022-09-30T18:47:42;14.90;99.90
65048;DHT22;52089;51.362;-2.384;2022-09-30T18:51:25;14.90;99.90
65048;DHT22;52089;51.362;-2.384;2022-09-30T18:55:07;14.90;99.90
65048;DHT22;52089;51.362;-2.384;2022-09-30T18:58:50;14.90;99.90
65048;DHT22;52089;51.362;-2.384;2022-09-30T19:02:34;15.00;99.90
65048;DHT22;52089;51.362;-2.384;2022-09-30T19:06:16;15.00;99.90
65048;DHT22;52089;51.362;-2.384;2022-09-30T19:09:58;15.00;99.90
65048;DHT22;52089;51.362;-2.384;2022-09-30T19:13:41;15.10;99.90
65048;DHT22;52089;51.362;-2.384;2022-09-30T19:17:23;15.10;99.90
65048;DHT22;52089;51.362;-2.384;2022-09-30T19:21:09;15.10;99.90
65048;DHT22;52089;51.362;-2.384;2022-09-30T19:24:51;15.20;99.90
65048;DHT22;52089;51.362;-2.384;2022-09-30T19:28:34;15.20;99.90
65048;DHT22;52089;51.362;-2.384;2022-09-30T19:32:19;15.20;99.90
65048;DHT22;52089;51.362;-2.384;2022-09-30T19:36:03;15.30;99.90
65048;DHT22;52089;51.362;-2.384;2022-09-30T19:39:55;15.30;99.90
65048;DHT22;52089;51.362;-2.384;2022-09-30T19:43:38;15.30;99.90
65048;DHT22;52089;51.362;-2.384;2022-09-30T19:47:23;15.30;99.90
65048;DHT22;52089;51.362;-2.384;2022-09-30T19:51:07;15.30;99.90
65048;DHT22;52089;51.362;-2.384;2022-09-30T19:54:49;15.30;99.90
65048;DHT22;52089;51.362;-2.384;2022-09-30T19:58:33;15.30;99.90
65048;DHT22;52089;51.362;-2.384;2022-09-30T20:02:16;15.30;99.90
65048;DHT22;52089;51.362;-2.384;2022-09-30T20:06:03;15.30;99.90
65048;DHT22;52089;51.362;-2.384;2022-09-30T20:09:45;15.30;99.90
65048;DHT22;52089;51.362;-2.384;2022-09-30T20:13:29;15.30;99.90
65048;DHT22;52089;51.362;-2.384;2022-09-30T20:17:11;15.30;99.90
65048;DHT22;52089;51.362;-2.384;2022-09-30T20:20:53;15.30;99.90
65048;DHT22;52089;51.362;-2.384;2022-09-30T20:24:35;15.40;99.90
65048;DHT22;52089;51.362;-2.384;2022-09-30T20:28:20;15.40;99.90
65048;DHT22;52089;51.362;-2.384;2022-09-30T20:32:02;15.30;99.90
65048;DHT22;52089;51.362;-2.384;2022-09-30T20:35:45;15.30;99.90
65048;DHT22;52089;51.362;-2.384;2022-09-30T20:39:27;15.30;99.90
65048;DHT22;52089;51.362;-2.384;2022-09-30T20:43:09;15.30;99.90
65048;DHT22;52089;51.362;-2.384;2022-09-30T20:46:51;15.30;99.90
65048;DHT22;52089;51.362;-2.384;2022-09-30T20:50:33;15.30;99.90
65048;DHT22;52089;51.362;-2.384;2022-09-30T20:54:18;15.30;99.90
65048;DHT22;52089;51.362;-2.384;2022-09-30T20:58:00;15.30;99.90
65048;DHT22;52089;51.362;-2.384;2022-09-30T21:01:42;15.30;99.90
65048;DHT22;52089;51.362;-2.384;2022-09-30T21:05:24;15.30;99.90
65048;DHT22;52089;51.362;-2.384;2022-09-30T21:09:05;15.20;99.90
65048;DHT22;52089;51.362;-2.384;2022-09-30T21:12:47;15.20;99.90
65048;DHT22;52089;51.362;-2.384;2022-09-30T21:16:30;15.10;99.90
65048;DHT22;52089;51.362;-2.384;2022-09-30T21:20:12;15.10;99.90
65048;DHT22;52089;51.362;-2.384;2022-09-30T21:23:54;15.10;99.90
65048;DHT22;52089;51.362;-2.384;2022-09-30T21:27:38;15.00;99.90
65048;DHT22;52089;51.362;-2.384;2022-09-30T21:31:22;15.00;99.90
65048;DHT22;52089;51.362;-2.384;2022-09-30T21:35:05;14.90;99.90
65048;DHT22;52089;51.362;-2.384;2022-09-30T21:38:48;14.90;99.90
65048;DHT22;52089;51.362;-2.384;2022-09-30T21:42:30;14.80;99.90
65048;DHT22;52089;51.362;-2.384;2022-09-30T21:46:13;14.80;99.90
65048;DHT22;52089;51.362;-2.384;2022-09-30T21:49:55;14.80;99.90
65048;DHT22;52089;51.362;-2.384;2022-09-30T21:53:37;14.70;99.90
65048;DHT22;52089;51.362;-2.384;2022-09-30T21:57:19;14.80;99.90
65048;DHT22;52089;51.362;-2.384;2022-09-30T22:01:03;14.70;99.90
65048;DHT22;52089;51.362;-2.384;2022-09-30T22:04:45;14.70;99.90
65048;DHT22;52089;51.362;-2.384;2022-09-30T22:08:29;14.80;99.90
65048;DHT22;52089;51.362;-2.384;2022-09-30T22:12:13;14.70;99.90
65048;DHT22;52089;51.362;-2.384;2022-09-30T22:16:01;14.70;99.90
65048;DHT22;52089;51.362;-2.384;2022-09-30T22:19:44;14.60;99.90
65048;DHT22;52089;51.362;-2.384;2022-09-30T22:23:25;14.60;99.90
65048;DHT22;52089;51.362;-2.384;2022-09-30T22:27:07;14.60;99.90
65048;DHT22;52089;51.362;-2.384;2022-09-30T22:30:49;14.50;99.90
65048;DHT22;52089;51.362;-2.384;2022-09-30T22:34:31;14.50;99.90
65048;DHT22;52089;51.362;-2.384;2022-09-30T22:38:31;14.40;99.90
65048;DHT22;52089;51.362;-2.384;2022-09-30T22:42:13;14.40;99.90
65048;DHT22;52089;51.362;-2.384;2022-09-30T22:46:06;14.30;99.90
65048;DHT22;52089;51.362;-2.384;2022-09-30T22:49:48;14.20;99.90
65048;DHT22;52089;51.362;-2.384;2022-09-30T22:53:30;14.10;99.90
65048;DHT22;52089;51.362;-2.384;2022-09-30T22:57:12;14.00;99.90
65048;DHT22;52089;51.362;-2.384;2022-09-30T23:00:56;14.00;99.90
65048;DHT22;52089;51.362;-2.384;2022-09-30T23:04:38;13.90;99.90
65048;DHT22;52089;51.362;-2.384;2022-09-30T23:08:19;13.80;99.90
65048;DHT22;52089;51.362;-2.384;2022-09-30T23:12:04;13.80;99.90
65048;DHT22;52089;51.362;-2.384;2022-09-30T23:15:46;13.70;99.90
65048;DHT22;52089;51.362;-2.384;2022-09-30T23:19:28;13.70;99.90
65048;DHT22;52089;51.362;-2.384;2022-09-30T23:23:10;13.70;99.90
65048;DHT22;52089;51.362;-2.384;2022-09-30T23:26:51;13.70;99.90
65048;DHT22;52089;51.362;-2.384;2022-09-30T23:30:33;13.60;99.90
65048;DHT22;52089;51.362;-2.384;2022-09-30T23:34:15;13.60;99.90
65048;DHT22;52089;51.362;-2.384;2022-09-30T23:37:57;13.60;99.90
65048;DHT22;52089;51.362;-2.384;2022-09-30T23:41:39;13.50;99.90
65048;DHT22;52089;51.362;-2.384;2022-09-30T23:45:21;13.50;99.90
65048;DHT22;52089;51.362;-2.384;2022-09-30T23:49:03;13.50;99.90
65048;DHT22;52089;51.362;-2.384;2022-09-30T23:52:44;13.50;99.90
65048;DHT22;52089;51.362;-2.384;2022-09-30T23:56:26;13.50;99.90
